Time;durP1;ratioP1;P1;durP2;ratioP2;P2;SDS_P1;SDS_P2;PMS_P1;PMS_P2;Temp;Humidity;BMP_temperature;BMP_pressure;BME280_temperature;BME280_humidity;BME280_pressure;Samples;Min_cycle;Max_cycle;Signal;HPM_P1;HPM_P2
2024/01/02 00:00:09;;;;;;;;;;;;;;;;;;5042753;28;19929;-65
2024/01/02 00:02:35;;;;;;;;;;;;;;;;;;5042340;28;19925;-65
2024/01/02 00:05:03;;;;;;;;;;;;;;;;;;5043202;28;19929;-65
2024/01/02 00:07:30;;;;;;;;;;;;;;;;;;5041233;28;19991;-65
2024/01/02 00:09:56;;;;;;;;;;;;;;;;;;5040961;28;20339;-65
2024/01/02 00:12:23;;;;;;;;;;;;;;;;;;5046110;28;19987;-65
2024/01/02 00:14:50;;;;;;;;;;;;;;;;;;5044356;28;20402;-66
2024/01/02 00:17:17;;;;;;;;;;;;;;;;;;5041607;28;20575;-65
2024/01/02 00:19:44;;;;;;;;;;;;;;;;;;5044999;28;20440;-66
2024/01/02 00:22:11;;;;;;;;;;;;;;;;;;5044350;28;19949;-66
2024/01/02 00:24:38;;;;;;;;;;;;;;;;;;5046598;28;19933;-66
2024/01/02 00:27:05;;;;;;;;;;;;;;;;;;5042648;28;19928;-66
2024/01/02 00:29:32;;;;;;;;;;;;;;;;;;5047541;28;19929;-65
2024/01/02 00:31:58;;;;;;;;;;;;;;;;;;5042153;28;19950;-66
2024/01/02 00:34:25;;;;;;;;;;;;;;;;;;5047004;28;19925;-66
2024/01/02 00:36:52;;;;;;;;;;;;;;;;;;5042265;28;19925;-65
2024/01/02 00:39:19;;;;;;;;;;;;;;;;;;5046899;28;19975;-66
2024/01/02 00:41:46;;;;;;;;;;;;;;;;;;5045692;28;19951;-65
2024/01/02 00:44:13;;;;;;;;;;;;;;;;;;5045512;28;19983;-66
2024/01/02 00:46:39;;;;;;;;;;;;;;;;;;5045197;28;19978;-66
2024/01/02 00:49:06;;;;;;;;;;;;;;;;;;5043460;28;19979;-65
2024/01/02 00:51:33;;;;;;;;;;;;;;;;;;5047080;28;19978;-66
2024/01/02 00:54:00;;;;;;;;;;;;;;;;;;5043823;28;20047;-65
2024/01/02 00:56:27;;;;;;;;;;;;;;;;;;5038652;28;19929;-65
2024/01/02 00:58:54;;;;;;;;;;;;;;;;;;5045892;28;19929;-66
2024/01/02 01:01:20;;;;;;;;;;;;;;;;;;5045758;28;19929;-65
2024/01/02 01:03:47;;;;;;;;;;;;;;;;;;5046063;28;19925;-65
2024/01/02 01:06:14;;;;;;;;;;;;;;;;;;5044034;28;19925;-65
2024/01/02 01:08:41;;;;;;;;;;;;;;;;;;5046905;28;19924;-65
2024/01/02 01:11:08;;;;;;;;;;;;;;;;;;5045581;28;19925;-65
2024/01/02 01:13:35;;;;;;;;;;;;;;;;;;5039610;28;19929;-65
2024/01/02 01:16:02;;;;;;;;;;;;;;;;;;5048728;28;19925;-66
2024/01/02 01:18:28;;;;;;;;;;;;;;;;;;5041162;28;19983;-65
2024/01/02 01:20:56;;;;;;;;;;;;;;;;;;5042983;28;19925;-65
2024/01/02 01:23:23;;;;;;;;;;;;;;;;;;5044216;28;20027;-65
2024/01/02 01:25:50;;;;;;;;;;;;;;;;;;5039342;28;20302;-66
2024/01/02 01:28:17;;;;;;;;;;;;;;;;;;5045989;28;20302;-65
2024/01/02 01:30:44;;;;;;;;;;;;;;;;;;5043832;28;20341;-65
2024/01/02 01:33:11;;;;;;;;;;;;;;;;;;5045589;28;19925;-65
2024/01/02 01:35:37;;;;;;;;;;;;;;;;;;5043030;28;19925;-65
2024/01/02 01:38:04;;;;;;;;;;;;;;;;;;5041580;28;19925;-65
2024/01/02 01:40:31;;;;;;;;;;;;;;;;;;5045008;28;19928;-65
2024/01/02 01:42:58;;;;;;;;;;;;;;;;;;5041411;28;19924;-65
2024/01/02 01:45:25;;;;;;;;;;;;;;;;;;5045794;28;20379;-65
2024/01/02 01:47:52;;;;;;;;;;;;;;;;;;5042481;28;19929;-65
2024/01/02 01:50:18;;;;;;;;;;;;;;;;;;5045621;28;19975;-65
2024/01/02 01:52:45;;;;;;;;;;;;;;;;;;5047152;28;19928;-66
2024/01/02 01:55:12;;;;;;;;;;;;;;;;;;5043886;28;19924;-66
2024/01/02 01:57:39;;;;;;;;;;;;;;;;;;5045043;28;19929;-65
2024/01/02 02:00:06;;;;;;;;;;;;;;;;;;5042469;28;19952;-66
2024/01/02 02:02:33;;;;;;;;;;;;;;;;;;5045575;28;19929;-66
2024/01/02 02:05:00;;;;;;;;;;;;;;;;;;5040914;28;19925;-65
2024/01/02 02:07:26;;;;;;;;;;;;;;;;;;5043435;28;19924;-66
2024/01/02 02:09:53;;;;;;;;;;;;;;;;;;5043521;28;19924;-66
2024/01/02 02:12:20;;;;;;;;;;;;;;;;;;5044355;28;19978;-66
2024/01/02 02:14:47;;;;;;;;;;;;;;;;;;5042242;28;19978;-66
2024/01/02 02:17:14;;;;;;;;;;;;;;;;;;5042845;28;19932;-66
2024/01/02 02:19:41;;;;;;;;;;;;;;;;;;5045255;28;19933;-66
2024/01/02 02:22:07;;;;;;;;;;;;;;;;;;5041493;28;19987;-66
2024/01/02 02:24:34;;;;;;;;;;;;;;;;;;5042655;28;19974;-66
2024/01/02 02:27:01;;;;;;;;;;;;;;;;;;5044193;28;19971;-65
2024/01/02 02:29:28;;;;;;;;;;;;;;;;;;5042617;28;19924;-65
2024/01/02 02:31:55;;;;;;;;;;;;;;;;;;5044495;28;19971;-65
2024/01/02 02:34:22;;;;;;;;;;;;;;;;;;5043859;28;19937;-65
2024/01/02 02:36:48;;;;;;;;;;;;;;;;;;5045849;28;19925;-65
2024/01/02 02:39:15;;;;;;;;;;;;;;;;;;5041501;28;19925;-66
2024/01/02 02:41:42;;;;;;;;;;;;;;;;;;5042807;28;19925;-66
2024/01/02 02:44:09;;;;;;;;;;;;;;;;;;5041060;28;19971;-66
2024/01/02 02:46:36;;;;;;;;;;;;;;;;;;5042940;28;19929;-66
2024/01/02 02:49:03;;;;;;;;;;;;;;;;;;5041600;28;19925;-66
2024/01/02 02:51:30;;;;;;;;;;;;;;;;;;5046892;28;19925;-65
2024/01/02 02:53:57;;;;;;;;;;;;;;;;;;5038959;28;19956;-65
2024/01/02 02:56:24;;;;;;;;;;;;;;;;;;5049298;28;19925;-66
2024/01/02 02:58:50;;;;;;;;;;;;;;;;;;5041947;28;20457;-66
2024/01/02 03:01:17;;;;;;;;;;;;;;;;;;5045221;28;20387;-66
2024/01/02 03:03:44;;;;;;;;;;;;;;;;;;5041122;28;19928;-65
2024/01/02 03:06:11;;;;;;;;;;;;;;;;;;5042962;28;19929;-65
2024/01/02 03:08:38;;;;;;;;;;;;;;;;;;5044184;28;19925;-65
2024/01/02 03:11:05;;;;;;;;;;;;;;;;;;5041514;28;19929;-65
2024/01/02 03:13:32;;;;;;;;;;;;;;;;;;5043704;28;19929;-65
2024/01/02 03:15:58;;;;;;;;;;;;;;;;;;5041462;28;19925;-65
2024/01/02 03:18:25;;;;;;;;;;;;;;;;;;5046774;28;19925;-65
2024/01/02 03:20:52;;;;;;;;;;;;;;;;;;5042414;28;19925;-65
2024/01/02 03:23:19;;;;;;;;;;;;;;;;;;5041991;28;19994;-65
2024/01/02 03:25:46;;;;;;;;;;;;;;;;;;5043337;28;19925;-65
2024/01/02 03:28:13;;;;;;;;;;;;;;;;;;5039751;28;19975;-65
2024/01/02 03:30:40;;;;;;;;;;;;;;;;;;5043583;28;19925;-65
2024/01/02 03:33:07;;;;;;;;;;;;;;;;;;5040398;28;19925;-65
2024/01/02 03:35:34;;;;;;;;;;;;;;;;;;5044058;28;19929;-65
2024/01/02 03:38:01;;;;;;;;;;;;;;;;;;5041267;28;19925;-65
2024/01/02 03:40:28;;;;;;;;;;;;;;;;;;5041367;28;19933;-65
2024/01/02 03:42:54;;;;;;;;;;;;;;;;;;5042246;28;19925;-65
2024/01/02 03:45:21;;;;;;;;;;;;;;;;;;5042623;28;19925;-66
2024/01/02 03:47:48;;;;;;;;;;;;;;;;;;5051397;28;19982;-66
2024/01/02 03:50:15;;;;;;;;;;;;;;;;;;5047176;28;20543;-66
2024/01/02 03:52:42;;;;;;;;;;;;;;;;;;5043640;28;19952;-66
2024/01/02 03:55:09;;;;;;;;;;;;;;;;;;5049521;28;19926;-66
2024/01/02 03:57:36;;;;;;;;;;;;;;;;;;5051366;28;19928;-66
2024/01/02 04:00:04;;;;;;;;;;;;;;;;;;5047054;28;19925;-66
2024/01/02 04:02:31;;;;;;;;;;;;;;;;;;5042992;28;19928;-66
2024/01/02 04:04:58;;;;;;;;;;;;;;;;;;5046791;28;20458;-66
2024/01/02 04:07:25;;;;;;;;;;;;;;;;;;5051178;28;20367;-66
2024/01/02 04:09:52;;;;;;;;;;;;;;;;;;5047944;28;20395;-66
2024/01/02 04:12:19;;;;;;;;;;;;;;;;;;5040399;28;20367;-66
2024/01/02 04:14:46;;;;;;;;;;;;;;;;;;5052521;28;19925;-66
2024/01/02 04:17:13;;;;;;;;;;;;;;;;;;5044827;28;19972;-66
2024/01/02 04:19:39;;;;;;;;;;;;;;;;;;5044366;28;19975;-66
2024/01/02 04:22:06;;;;;;;;;;;;;;;;;;5044696;28;19979;-66
2024/01/02 04:24:33;;;;;;;;;;;;;;;;;;5046612;28;19951;-66
2024/01/02 04:27:00;;;;;;;;;;;;;;;;;;5043891;28;19987;-66
2024/01/02 04:29:27;;;;;;;;;;;;;;;;;;5046387;28;19929;-66
2024/01/02 04:31:54;;;;;;;;;;;;;;;;;;5044811;28;19933;-66
2024/01/02 04:34:22;;;;;;;;;;;;;;;;;;5046629;28;20338;-67
2024/01/02 04:36:49;;;;;;;;;;;;;;;;;;5045912;28;19929;-67
2024/01/02 04:39:15;;;;;;;;;;;;;;;;;;5043650;28;19925;-67
2024/01/02 04:41:42;;;;;;;;;;;;;;;;;;5045945;28;20015;-67
2024/01/02 04:44:09;;;;;;;;;;;;;;;;;;5043696;28;19925;-67
2024/01/02 04:46:36;;;;;;;;;;;;;;;;;;5045908;28;20430;-67
2024/01/02 04:49:03;;;;;;;;;;;;;;;;;;5044982;28;19925;-67
2024/01/02 04:51:30;;;;;;;;;;;;;;;;;;5043951;28;19928;-67
2024/01/02 04:53:57;;;;;;;;;;;;;;;;;;5045183;28;19958;-67
2024/01/02 04:56:24;;;;;;;;;;;;;;;;;;5045727;28;19971;-67
2024/01/02 04:58:51;;;;;;;;;;;;;;;;;;5048892;28;19994;-67
2024/01/02 05:01:18;;;;;;;;;;;;;;;;;;5043935;28;19987;-67
2024/01/02 05:03:45;;;;;;;;;;;;;;;;;;5046535;28;19987;-67
2024/01/02 05:06:11;;;;;;;;;;;;;;;;;;5043088;28;20337;-67
2024/01/02 05:08:38;;;;;;;;;;;;;;;;;;5050025;28;20341;-67
2024/01/02 05:11:05;;;;;;;;;;;;;;;;;;5045632;28;20386;-67
2024/01/02 05:13:32;;;;;;;;;;;;;;;;;;5045300;28;19925;-64
2024/01/02 05:15:59;;;;;;;;;;;;;;;;;;5045841;28;20414;-67
2024/01/02 05:18:26;;;;;;;;;;;;;;;;;;5044497;28;20449;-67
2024/01/02 05:20:52;;;;;;;;;;;;;;;;;;5043264;28;20035;-67
2024/01/02 05:23:19;;;;;;;;;;;;;;;;;;5046752;28;19971;-67
2024/01/02 05:25:46;;;;;;;;;;;;;;;;;;5044591;28;19937;-67
2024/01/02 05:28:13;;;;;;;;;;;;;;;;;;5045474;28;19925;-66
2024/01/02 05:30:39;;;;;;;;;;;;;;;;;;5045417;28;19928;-67
2024/01/02 05:33:06;;;;;;;;;;;;;;;;;;5045329;28;19921;-67
2024/01/02 05:35:33;;;;;;;;;;;;;;;;;;5050671;28;19925;-67
2024/01/02 05:37:59;;;;;;;;;;;;;;;;;;5042627;28;19944;-67
2024/01/02 05:40:26;;;;;;;;;;;;;;;;;;5045936;28;19929;-67
2024/01/02 05:42:53;;;;;;;;;;;;;;;;;;5043060;28;19925;-67
2024/01/02 05:45:20;;;;;;;;;;;;;;;;;;5046059;28;19929;-67
2024/01/02 05:47:47;;;;;;;;;;;;;;;;;;5044670;28;20341;-67
2024/01/02 05:50:14;;;;;;;;;;;;;;;;;;5043729;28;20346;-67
2024/01/02 05:52:40;;;;;;;;;;;;;;;;;;5045688;28;19925;-67
2024/01/02 05:55:07;;;;;;;;;;;;;;;;;;5042433;28;20343;-67
2024/01/02 05:57:34;;;;;;;;;;;;;;;;;;5045634;28;20327;-67
2024/01/02 06:00:01;;;;;;;;;;;;;;;;;;5042382;28;19986;-67
2024/01/02 06:02:28;;;;;;;;;;;;;;;;;;5045643;28;19975;-67
2024/01/02 06:04:55;;;;;;;;;;;;;;;;;;5043748;28;19978;-67
2024/01/02 06:07:22;;;;;;;;;;;;;;;;;;5044065;28;19994;-67
2024/01/02 06:09:48;;;;;;;;;;;;;;;;;;5043861;28;20369;-67
2024/01/02 06:12:15;;;;;;;;;;;;;;;;;;5042604;28;20331;-67
2024/01/02 06:14:42;;;;;;;;;;;;;;;;;;5045545;28;20354;-67
2024/01/02 06:17:09;;;;;;;;;;;;;;;;;;5041692;28;20450;-67
2024/01/02 06:19:36;;;;;;;;;;;;;;;;;;5045352;28;19970;-68
2024/01/02 06:22:03;;;;;;;;;;;;;;;;;;5043826;28;19929;-67
2024/01/02 06:24:30;;;;;;;;;;;;;;;;;;5043126;28;19924;-67
2024/01/02 06:26:56;;;;;;;;;;;;;;;;;;5044724;28;19925;-67
2024/01/02 06:29:25;;;;;;;;;;;;;;;;;;5046019;28;19933;-67
2024/01/02 06:31:51;;;;;;;;;;;;;;;;;;5046207;28;20422;-67
2024/01/02 06:34:18;;;;;;;;;;;;;;;;;;5041568;28;19929;-67
2024/01/02 06:36:45;;;;;;;;;;;;;;;;;;5044819;28;19947;-67
2024/01/02 06:39:12;;;;;;;;;;;;;;;;;;5041197;28;19987;-67
2024/01/02 06:41:41;;;;;;;;;;;;;;;;;;5042022;28;20004;-67
2024/01/02 06:44:08;;;;;;;;;;;;;;;;;;5044338;28;20326;-67
2024/01/02 06:46:35;;;;;;;;;;;;;;;;;;5045688;28;20387;-67
2024/01/02 06:49:01;;;;;;;;;;;;;;;;;;5044037;28;20391;-67
2024/01/02 06:51:29;;;;;;;;;;;;;;;;;;5041881;28;20391;-67
2024/01/02 06:53:56;;;;;;;;;;;;;;;;;;5041433;28;19971;-67
2024/01/02 06:56:23;;;;;;;;;;;;;;;;;;5044731;28;19979;-67
2024/01/02 06:58:50;;;;;;;;;;;;;;;;;;5042796;28;19978;-67
2024/01/02 07:01:17;;;;;;;;;;;;;;;;;;5043815;28;19929;-67
2024/01/02 07:03:44;;;;;;;;;;;;;;;;;;5043622;28;19925;-67
2024/01/02 07:06:11;;;;;;;;;;;;;;;;;;5042009;28;19928;-67
2024/01/02 07:08:38;;;;;;;;;;;;;;;;;;5044287;28;19925;-67
2024/01/02 07:11:04;;;;;;;;;;;;;;;;;;5040874;28;19925;-66
2024/01/02 07:13:31;;;;;;;;;;;;;;;;;;5044353;28;19932;-67
2024/01/02 07:15:58;;;;;;;;;;;;;;;;;;5041731;28;19933;-67
2024/01/02 07:18:25;;;;;;;;;;;;;;;;;;5043365;28;20014;-67
2024/01/02 07:20:52;;;;;;;;;;;;;;;;;;5042868;28;19929;-67
2024/01/02 07:23:19;;;;;;;;;;;;;;;;;;5042069;28;19990;-67
2024/01/02 07:25:46;;;;;;;;;;;;;;;;;;5044487;28;20351;-67
2024/01/02 07:28:12;;;;;;;;;;;;;;;;;;5040756;28;20339;-67
2024/01/02 07:30:39;;;;;;;;;;;;;;;;;;5044377;28;20288;-67
2024/01/02 07:33:06;;;;;;;;;;;;;;;;;;5040760;28;20281;-67
2024/01/02 07:35:33;;;;;;;;;;;;;;;;;;5044241;28;19925;-65
2024/01/02 07:38:00;;;;;;;;;;;;;;;;;;5042479;28;19929;-64
2024/01/02 07:40:27;;;;;;;;;;;;;;;;;;5040744;28;19978;-67
2024/01/02 07:42:53;;;;;;;;;;;;;;;;;;5043425;28;19979;-67
2024/01/02 07:45:20;;;;;;;;;;;;;;;;;;5041144;28;19979;-67
2024/01/02 07:47:47;;;;;;;;;;;;;;;;;;5044266;28;19983;-65
2024/01/02 07:50:14;;;;;;;;;;;;;;;;;;5040280;28;19937;-65
2024/01/02 07:52:41;;;;;;;;;;;;;;;;;;5042807;28;19928;-65
2024/01/02 07:55:08;;;;;;;;;;;;;;;;;;5043273;28;19924;-65
2024/01/02 07:57:35;;;;;;;;;;;;;;;;;;5043224;28;19958;-65
2024/01/02 08:00:02;;;;;;;;;;;;;;;;;;5043177;28;19928;-65
2024/01/02 08:02:29;;;;;;;;;;;;;;;;;;5041666;28;19936;-65
2024/01/02 08:04:56;;;;;;;;;;;;;;;;;;5047872;28;19925;-65
2024/01/02 08:07:23;;;;;;;;;;;;;;;;;;5040415;28;19929;-65
2024/01/02 08:09:50;;;;;;;;;;;;;;;;;;5041749;28;19925;-65
2024/01/02 08:12:17;;;;;;;;;;;;;;;;;;5042782;28;19932;-65
2024/01/02 08:14:44;;;;;;;;;;;;;;;;;;5043842;28;20011;-66
2024/01/02 08:17:10;;;;;;;;;;;;;;;;;;5044994;28;19928;-65
2024/01/02 08:19:37;;;;;;;;;;;;;;;;;;5042418;28;19924;-66
2024/01/02 08:22:04;;;;;;;;;;;;;;;;;;5040065;28;19956;-65
2024/01/02 08:24:31;;;;;;;;;;;;;;;;;;5044197;28;19929;-66
2024/01/02 08:26:58;;;;;;;;;;;;;;;;;;5043258;28;19925;-66
2024/01/02 08:29:25;;;;;;;;;;;;;;;;;;5039412;28;19932;-67
2024/01/02 08:31:52;;;;;;;;;;;;;;;;;;5042463;28;19987;-67
2024/01/02 08:34:18;;;;;;;;;;;;;;;;;;5045173;28;19971;-67
2024/01/02 08:36:45;;;;;;;;;;;;;;;;;;5049371;28;19925;-67
2024/01/02 08:39:12;;;;;;;;;;;;;;;;;;5047612;28;19925;-66
2024/01/02 08:41:39;;;;;;;;;;;;;;;;;;5047515;28;20023;-67
2024/01/02 08:44:06;;;;;;;;;;;;;;;;;;5043509;28;19971;-66
2024/01/02 08:46:33;;;;;;;;;;;;;;;;;;5044186;28;19925;-67
2024/01/02 08:49:00;;;;;;;;;;;;;;;;;;5044871;28;19933;-67
2024/01/02 08:51:27;;;;;;;;;;;;;;;;;;5045984;28;19924;-66
2024/01/02 08:53:54;;;;;;;;;;;;;;;;;;5046387;28;19925;-67
2024/01/02 08:56:21;;;;;;;;;;;;;;;;;;5044094;28;19971;-66
2024/01/02 08:58:48;;;;;;;;;;;;;;;;;;5052472;28;19925;-66
2024/01/02 09:01:17;;;;;;;;;;;;;;;;;;5048125;28;20383;-66
2024/01/02 09:03:44;;;;;;;;;;;;;;;;;;5048094;28;19925;-67
2024/01/02 09:06:11;;;;;;;;;;;;;;;;;;5045364;28;20330;-67
2024/01/02 09:08:38;;;;;;;;;;;;;;;;;;5047061;28;19924;-66
2024/01/02 09:11:05;;;;;;;;;;;;;;;;;;5047852;28;19925;-66
2024/01/02 09:13:32;;;;;;;;;;;;;;;;;;5044677;28;19924;-67
2024/01/02 09:15:58;;;;;;;;;;;;;;;;;;5049969;28;19928;-66
2024/01/02 09:18:26;;;;;;;;;;;;;;;;;;5043370;28;19971;-66
2024/01/02 09:20:54;;;;;;;;;;;;;;;;;;5046697;28;20414;-66
2024/01/02 09:23:21;;;;;;;;;;;;;;;;;;5042918;28;19955;-67
2024/01/02 09:25:48;;;;;;;;;;;;;;;;;;5045080;28;19929;-66
2024/01/02 09:28:16;;;;;;;;;;;;;;;;;;5045546;28;20066;-67
2024/01/02 09:30:43;;;;;;;;;;;;;;;;;;5046098;28;19951;-67
2024/01/02 09:33:10;;;;;;;;;;;;;;;;;;5045413;28;20023;-66
2024/01/02 09:35:37;;;;;;;;;;;;;;;;;;5044507;28;19926;-66
2024/01/02 09:38:05;;;;;;;;;;;;;;;;;;5042302;28;19945;-67
2024/01/02 09:40:32;;;;;;;;;;;;;;;;;;5045997;28;20457;-66
2024/01/02 09:42:59;;;;;;;;;;;;;;;;;;5045174;28;19931;-67
2024/01/02 09:45:25;;;;;;;;;;;;;;;;;;5045305;28;19971;-67
2024/01/02 09:47:52;;;;;;;;;;;;;;;;;;5045532;28;19970;-67
2024/01/02 09:50:19;;;;;;;;;;;;;;;;;;5046710;28;19925;-67
2024/01/02 09:52:46;;;;;;;;;;;;;;;;;;5048145;28;19929;-66
2024/01/02 09:55:13;;;;;;;;;;;;;;;;;;5048721;28;19925;-67
2024/01/02 09:57:40;;;;;;;;;;;;;;;;;;5051714;28;19933;-68
2024/01/02 10:00:06;;;;;;;;;;;;;;;;;;5044123;28;19987;-66
2024/01/02 10:02:33;;;;;;;;;;;;;;;;;;5045154;28;19991;-67
2024/01/02 10:05:00;;;;;;;;;;;;;;;;;;5044808;28;19928;-67
2024/01/02 10:07:27;;;;;;;;;;;;;;;;;;5043797;28;19929;-67
2024/01/02 10:09:54;;;;;;;;;;;;;;;;;;5045107;28;19933;-67
2024/01/02 10:12:21;;;;;;;;;;;;;;;;;;5042231;28;19929;-67
2024/01/02 10:14:48;;;;;;;;;;;;;;;;;;5045355;28;19929;-67
2024/01/02 10:17:17;;;;;;;;;;;;;;;;;;5041597;28;19979;-67
2024/01/02 10:19:44;;;;;;;;;;;;;;;;;;5045055;28;20295;-67
2024/01/02 10:22:11;;;;;;;;;;;;;;;;;;5042338;28;20525;-67
2024/01/02 10:24:38;;;;;;;;;;;;;;;;;;5044343;28;19925;-67
2024/01/02 10:27:05;;;;;;;;;;;;;;;;;;5044469;28;19928;-67
2024/01/02 10:29:32;;;;;;;;;;;;;;;;;;5043103;28;19951;-67
2024/01/02 10:31:59;;;;;;;;;;;;;;;;;;5044727;28;20012;-67
2024/01/02 10:34:27;;;;;;;;;;;;;;;;;;5041524;28;19924;-67
2024/01/02 10:36:53;;;;;;;;;;;;;;;;;;5042525;28;19929;-67
2024/01/02 10:39:20;;;;;;;;;;;;;;;;;;5044253;28;19929;-67
2024/01/02 10:41:47;;;;;;;;;;;;;;;;;;5042107;28;19994;-67
2024/01/02 10:44:14;;;;;;;;;;;;;;;;;;5044303;28;19986;-67
2024/01/02 10:46:41;;;;;;;;;;;;;;;;;;5043463;28;19924;-67
2024/01/02 10:49:08;;;;;;;;;;;;;;;;;;5044017;28;20042;-67
2024/01/02 10:51:35;;;;;;;;;;;;;;;;;;5042051;28;19925;-66
2024/01/02 10:54:02;;;;;;;;;;;;;;;;;;5044170;28;19929;-67
2024/01/02 10:56:28;;;;;;;;;;;;;;;;;;5044253;28;19925;-67
2024/01/02 10:58:55;;;;;;;;;;;;;;;;;;5042990;28;19995;-67
2024/01/02 11:01:23;;;;;;;;;;;;;;;;;;5043902;28;19951;-66
2024/01/02 11:03:50;;;;;;;;;;;;;;;;;;5043434;28;20023;-67
2024/01/02 11:06:17;;;;;;;;;;;;;;;;;;5041474;28;20395;-67
2024/01/02 11:08:43;;;;;;;;;;;;;;;;;;5044243;28;20925;-67
2024/01/02 11:11:11;;;;;;;;;;;;;;;;;;5040640;28;19951;-66
2024/01/02 11:13:38;;;;;;;;;;;;;;;;;;5044107;28;20379;-67
2024/01/02 11:16:05;;;;;;;;;;;;;;;;;;5041635;28;20008;-67
2024/01/02 11:18:32;;;;;;;;;;;;;;;;;;5043286;28;19925;-67
2024/01/02 11:20:59;;;;;;;;;;;;;;;;;;5043111;28;19951;-67
2024/01/02 11:23:26;;;;;;;;;;;;;;;;;;5041862;28;20028;-69
2024/01/02 11:25:53;;;;;;;;;;;;;;;;;;5044596;28;19928;-70
2024/01/02 11:28:21;;;;;;;;;;;;;;;;;;5040901;28;19925;-70
2024/01/02 11:30:48;;;;;;;;;;;;;;;;;;5044846;28;19932;-69
2024/01/02 11:33:15;;;;;;;;;;;;;;;;;;5041753;28;19971;-69
2024/01/02 11:35:42;;;;;;;;;;;;;;;;;;5042849;28;20387;-68
2024/01/02 11:38:09;;;;;;;;;;;;;;;;;;5044517;28;20379;-68
2024/01/02 11:40:36;;;;;;;;;;;;;;;;;;5042826;28;19924;-68
2024/01/02 11:43:03;;;;;;;;;;;;;;;;;;5047179;28;20304;-68
2024/01/02 11:45:30;;;;;;;;;;;;;;;;;;5041773;28;19936;-68
2024/01/02 11:47:56;;;;;;;;;;;;;;;;;;5044432;28;19986;-69
2024/01/02 11:50:23;;;;;;;;;;;;;;;;;;5040538;28;19929;-69
2024/01/02 11:52:50;;;;;;;;;;;;;;;;;;5042358;28;19925;-68
2024/01/02 11:55:17;;;;;;;;;;;;;;;;;;5043507;28;19932;-69
2024/01/02 11:57:44;;;;;;;;;;;;;;;;;;5043420;28;19990;-68
2024/01/02 12:00:11;;;;;;;;;;;;;;;;;;5043465;28;19929;-68
2024/01/02 12:02:38;;;;;;;;;;;;;;;;;;5041993;28;20339;-68
2024/01/02 12:05:05;;;;;;;;;;;;;;;;;;5044132;28;20276;-69
2024/01/02 12:07:32;;;;;;;;;;;;;;;;;;5044443;28;20400;-69
2024/01/02 12:09:59;;;;;;;;;;;;;;;;;;5045448;28;20379;-70
2024/01/02 12:12:25;;;;;;;;;;;;;;;;;;5046466;28;20437;-69
2024/01/02 12:14:52;;;;;;;;;;;;;;;;;;5046913;28;19990;-69
2024/01/02 12:17:19;;;;;;;;;;;;;;;;;;5047041;28;19924;-67
2024/01/02 12:19:46;;;;;;;;;;;;;;;;;;5046524;28;19931;-66
2024/01/02 12:22:13;;;;;;;;;;;;;;;;;;5043870;28;19933;-68
2024/01/02 12:24:40;;;;;;;;;;;;;;;;;;5047455;28;19933;-69
2024/01/02 12:27:07;;;;;;;;;;;;;;;;;;5044586;28;19925;-69
2024/01/02 12:29:34;;;;;;;;;;;;;;;;;;5046662;28;20392;-68
2024/01/02 12:32:00;;;;;;;;;;;;;;;;;;5045541;28;20429;-68
2024/01/02 12:34:27;;;;;;;;;;;;;;;;;;5049893;28;19978;-69
2024/01/02 12:36:54;;;;;;;;;;;;;;;;;;5047403;28;20342;-69
2024/01/02 12:39:21;;;;;;;;;;;;;;;;;;5044015;28;20346;-69
2024/01/02 12:41:51;;;;;;;;;;;;;;;;;;5047075;28;20334;-69
2024/01/02 12:44:18;;;;;;;;;;;;;;;;;;5043633;28;19925;-68
2024/01/02 12:46:45;;;;;;;;;;;;;;;;;;5047377;28;19975;-69
2024/01/02 12:49:12;;;;;;;;;;;;;;;;;;5044519;28;19939;-68
2024/01/02 12:51:38;;;;;;;;;;;;;;;;;;5046315;28;19925;-68
2024/01/02 12:54:08;;;;;;;;;;;;;;;;;;5046246;28;20007;-68
2024/01/02 12:56:35;;;;;;;;;;;;;;;;;;5045557;28;20325;-69
2024/01/02 12:59:02;;;;;;;;;;;;;;;;;;5047009;28;19947;-67
2024/01/02 13:01:29;;;;;;;;;;;;;;;;;;5043674;28;19925;-67
2024/01/02 13:03:56;;;;;;;;;;;;;;;;;;5046732;28;19925;-67
2024/01/02 13:06:23;;;;;;;;;;;;;;;;;;5042923;28;19929;-67
2024/01/02 13:08:49;;;;;;;;;;;;;;;;;;5045079;28;19988;-67
2024/01/02 13:11:16;;;;;;;;;;;;;;;;;;5049295;28;19925;-67
2024/01/02 13:13:43;;;;;;;;;;;;;;;;;;5047487;28;19975;-67
2024/01/02 13:16:10;;;;;;;;;;;;;;;;;;5046706;28;19932;-67
2024/01/02 13:18:37;;;;;;;;;;;;;;;;;;5043286;28;19929;-68
2024/01/02 13:21:04;;;;;;;;;;;;;;;;;;5048354;28;19925;-67
2024/01/02 13:23:31;;;;;;;;;;;;;;;;;;5043824;28;20730;-67
2024/01/02 13:25:57;;;;;;;;;;;;;;;;;;5044798;28;19974;-67
2024/01/02 13:28:24;;;;;;;;;;;;;;;;;;5045322;28;19952;-67
2024/01/02 13:30:52;;;;;;;;;;;;;;;;;;5045355;28;19924;-67
2024/01/02 13:33:19;;;;;;;;;;;;;;;;;;5045271;28;19972;-67
2024/01/02 13:35:47;;;;;;;;;;;;;;;;;;5044111;28;19983;-67
2024/01/02 13:38:14;;;;;;;;;;;;;;;;;;5042505;28;19925;-66
2024/01/02 13:40:41;;;;;;;;;;;;;;;;;;5045971;28;20410;-67
2024/01/02 13:43:11;;;;;;;;;;;;;;;;;;5042954;28;20482;-67
2024/01/02 13:45:37;;;;;;;;;;;;;;;;;;5045635;28;19932;-67
2024/01/02 13:48:04;;;;;;;;;;;;;;;;;;5044218;28;19928;-67
2024/01/02 13:50:32;;;;;;;;;;;;;;;;;;5043689;28;19932;-67
2024/01/02 13:52:59;;;;;;;;;;;;;;;;;;5044924;28;20387;-67
2024/01/02 13:55:26;;;;;;;;;;;;;;;;;;5042692;28;19925;-66
2024/01/02 13:57:53;;;;;;;;;;;;;;;;;;5045396;28;19929;-67
2024/01/02 14:00:20;;;;;;;;;;;;;;;;;;5041852;28;19932;-67
2024/01/02 14:02:47;;;;;;;;;;;;;;;;;;5045003;28;20529;-67
2024/01/02 14:05:14;;;;;;;;;;;;;;;;;;5042905;28;19932;-67
2024/01/02 14:07:41;;;;;;;;;;;;;;;;;;5044594;28;19978;-67
2024/01/02 14:10:08;;;;;;;;;;;;;;;;;;5044308;28;19925;-67
2024/01/02 14:12:35;;;;;;;;;;;;;;;;;;5042855;28;20019;-67
2024/01/02 14:15:01;;;;;;;;;;;;;;;;;;5045434;28;19933;-67
2024/01/02 14:17:28;;;;;;;;;;;;;;;;;;5041704;28;19925;-67
2024/01/02 14:19:55;;;;;;;;;;;;;;;;;;5045087;28;19924;-67
2024/01/02 14:22:22;;;;;;;;;;;;;;;;;;5042141;28;19979;-67
2024/01/02 14:24:49;;;;;;;;;;;;;;;;;;5044280;28;19925;-67
2024/01/02 14:27:17;;;;;;;;;;;;;;;;;;5044751;28;20011;-67
2024/01/02 14:29:44;;;;;;;;;;;;;;;;;;5043520;28;19933;-67
2024/01/02 14:32:11;;;;;;;;;;;;;;;;;;5044190;28;19925;-67
2024/01/02 14:34:38;;;;;;;;;;;;;;;;;;5044033;28;19925;-67
2024/01/02 14:37:06;;;;;;;;;;;;;;;;;;5044508;28;19929;-69
2024/01/02 14:39:33;;;;;;;;;;;;;;;;;;5047230;28;19933;-69
2024/01/02 14:42:00;;;;;;;;;;;;;;;;;;5046624;28;19932;-69
2024/01/02 14:44:27;;;;;;;;;;;;;;;;;;5047153;28;20287;-69
2024/01/02 14:46:56;;;;;;;;;;;;;;;;;;5046408;28;20371;-69
2024/01/02 14:49:23;;;;;;;;;;;;;;;;;;5046027;28;19925;-69
2024/01/02 14:51:50;;;;;;;;;;;;;;;;;;5045178;28;19951;-69
2024/01/02 14:54:17;;;;;;;;;;;;;;;;;;5043772;28;19983;-69
2024/01/02 14:56:43;;;;;;;;;;;;;;;;;;5047543;28;19932;-69
2024/01/02 14:59:10;;;;;;;;;;;;;;;;;;5045653;28;19925;-68
2024/01/02 15:01:37;;;;;;;;;;;;;;;;;;5048902;28;20294;-69
2024/01/02 15:04:04;;;;;;;;;;;;;;;;;;5047865;28;19932;-70
2024/01/02 15:06:31;;;;;;;;;;;;;;;;;;5046766;28;19925;-69
2024/01/02 15:09:00;;;;;;;;;;;;;;;;;;5048535;28;19925;-70
2024/01/02 15:11:27;;;;;;;;;;;;;;;;;;5041737;28;19925;-68
2024/01/02 15:13:54;;;;;;;;;;;;;;;;;;5048884;28;20016;-68
2024/01/02 15:16:21;;;;;;;;;;;;;;;;;;5041466;28;19925;-67
2024/01/02 15:18:47;;;;;;;;;;;;;;;;;;5042701;28;19979;-67
2024/01/02 15:21:14;;;;;;;;;;;;;;;;;;5048532;28;20407;-68
2024/01/02 15:23:40;;;;;;;;;;;;;;;;;;5046916;28;20387;-67
2024/01/02 15:26:07;;;;;;;;;;;;;;;;;;5038231;28;19991;-65
2024/01/02 15:28:34;;;;;;;;;;;;;;;;;;5040916;28;19929;-66
2024/01/02 15:31:01;;;;;;;;;;;;;;;;;;5046483;28;19925;-66
2024/01/02 15:33:28;;;;;;;;;;;;;;;;;;5037713;28;19956;-66
2024/01/02 15:35:55;;;;;;;;;;;;;;;;;;5044002;28;19925;-65
2024/01/02 15:38:22;;;;;;;;;;;;;;;;;;5040487;28;19937;-65
2024/01/02 15:40:49;;;;;;;;;;;;;;;;;;5042725;28;19925;-65
2024/01/02 15:43:16;;;;;;;;;;;;;;;;;;5045977;28;20379;-66
2024/01/02 15:45:42;;;;;;;;;;;;;;;;;;5045863;28;20350;-65
2024/01/02 15:48:09;;;;;;;;;;;;;;;;;;5050457;28;19925;-65
2024/01/02 15:50:37;;;;;;;;;;;;;;;;;;5047335;28;20342;-64
2024/01/02 15:53:03;;;;;;;;;;;;;;;;;;5045048;28;19931;-66
2024/01/02 15:55:30;;;;;;;;;;;;;;;;;;5046621;28;20054;-65
2024/01/02 15:57:57;;;;;;;;;;;;;;;;;;5044916;28;19978;-64
2024/01/02 16:00:24;;;;;;;;;;;;;;;;;;5046515;28;19954;-65
2024/01/02 16:02:50;;;;;;;;;;;;;;;;;;5046069;28;19924;-65
2024/01/02 16:05:17;;;;;;;;;;;;;;;;;;5043348;28;19994;-65
2024/01/02 16:07:44;;;;;;;;;;;;;;;;;;5046890;28;20375;-65
2024/01/02 16:10:10;;;;;;;;;;;;;;;;;;5046397;28;19939;-65
2024/01/02 16:12:37;;;;;;;;;;;;;;;;;;5046537;28;19921;-64
2024/01/02 16:15:04;;;;;;;;;;;;;;;;;;5045869;28;20276;-65
2024/01/02 16:17:31;;;;;;;;;;;;;;;;;;5046054;28;20321;-64
2024/01/02 16:19:58;;;;;;;;;;;;;;;;;;5046194;28;20334;-66
2024/01/02 16:22:25;;;;;;;;;;;;;;;;;;5039648;28;20342;-64
2024/01/02 16:24:52;;;;;;;;;;;;;;;;;;5043941;28;20500;-64
2024/01/02 16:27:18;;;;;;;;;;;;;;;;;;5042860;28;20349;-63
2024/01/02 16:29:46;;;;;;;;;;;;;;;;;;5046975;28;19921;-62
2024/01/02 16:32:13;;;;;;;;;;;;;;;;;;5045676;28;19924;-65
2024/01/02 16:34:39;;;;;;;;;;;;;;;;;;5047717;28;19925;-63
2024/01/02 16:37:06;;;;;;;;;;;;;;;;;;5046828;28;20058;-65
2024/01/02 16:39:34;;;;;;;;;;;;;;;;;;5044557;28;19991;-66
2024/01/02 16:42:02;;;;;;;;;;;;;;;;;;5053902;28;19931;-67